sensor_id;sensor_type;location;lat;lon;timestamp;temperature;humidity
22319;DHT22;11327;52.334;9.506;2024-03-02T00:02:15;8.00;99.90
22319;DHT22;11327;52.334;9.506;2024-03-02T00:05:36;8.00;99.90
22319;DHT22;11327;52.334;9.506;2024-03-02T00:08:58;7.90;99.90
22319;DHT22;11327;52.334;9.506;2024-03-02T00:12:19;7.90;99.90
22319;DHT22;11327;52.334;9.506;2024-03-02T00:15:48;7.90;99.90
22319;DHT22;11327;52.334;9.506;2024-03-02T00:19:11;7.90;99.90
22319;DHT22;11327;52.334;9.506;2024-03-02T00:22:35;7.80;99.90
22319;DHT22;11327;52.334;9.506;2024-03-02T00:25:58;7.80;99.90
22319;DHT22;11327;52.334;9.506;2024-03-02T00:29:20;7.90;99.90
22319;DHT22;11327;52.334;9.506;2024-03-02T00:32:42;8.00;99.90
22319;DHT22;11327;52.334;9.506;2024-03-02T00:36:04;8.00;99.90
22319;DHT22;11327;52.334;9.506;2024-03-02T00:39:25;8.00;99.90
22319;DHT22;11327;52.334;9.506;2024-03-02T00:42:46;8.00;99.90
22319;DHT22;11327;52.334;9.506;2024-03-02T00:46:07;8.00;99.90
22319;DHT22;11327;52.334;9.506;2024-03-02T00:49:28;8.10;99.90
22319;DHT22;11327;52.334;9.506;2024-03-02T00:52:49;8.30;99.90
22319;DHT22;11327;52.334;9.506;2024-03-02T00:56:11;8.40;99.90
22319;DHT22;11327;52.334;9.506;2024-03-02T00:59:32;8.50;99.90
22319;DHT22;11327;52.334;9.506;2024-03-02T01:02:53;8.60;99.90
22319;DHT22;11327;52.334;9.506;2024-03-02T01:06:13;8.50;99.90
22319;DHT22;11327;52.334;9.506;2024-03-02T01:09:35;8.40;99.90
22319;DHT22;11327;52.334;9.506;2024-03-02T01:12:55;8.40;99.90
22319;DHT22;11327;52.334;9.506;2024-03-02T01:16:16;8.60;99.90
22319;DHT22;11327;52.334;9.506;2024-03-02T01:19:37;8.20;99.90
22319;DHT22;11327;52.334;9.506;2024-03-02T01:22:59;8.30;99.90
22319;DHT22;11327;52.334;9.506;2024-03-02T01:26:20;8.30;99.90
22319;DHT22;11327;52.334;9.506;2024-03-02T01:29:41;8.20;99.90
22319;DHT22;11327;52.334;9.506;2024-03-02T01:33:01;8.20;99.90
22319;DHT22;11327;52.334;9.506;2024-03-02T01:36:22;8.20;99.90
22319;DHT22;11327;52.334;9.506;2024-03-02T01:39:43;8.30;99.90
22319;DHT22;11327;52.334;9.506;2024-03-02T01:43:05;8.60;99.90
22319;DHT22;11327;52.334;9.506;2024-03-02T01:46:26;8.40;99.90
22319;DHT22;11327;52.334;9.506;2024-03-02T01:49:46;8.50;99.90
22319;DHT22;11327;52.334;9.506;2024-03-02T01:53:08;8.50;99.90
22319;DHT22;11327;52.334;9.506;2024-03-02T01:56:29;8.60;99.90
22319;DHT22;11327;52.334;9.506;2024-03-02T01:59:50;8.60;99.90
22319;DHT22;11327;52.334;9.506;2024-03-02T02:03:11;8.70;99.90
22319;DHT22;11327;52.334;9.506;2024-03-02T02:06:32;8.60;99.90
22319;DHT22;11327;52.334;9.506;2024-03-02T02:09:53;8.60;99.90
22319;DHT22;11327;52.334;9.506;2024-03-02T02:13:14;8.60;99.90
22319;DHT22;11327;52.334;9.506;2024-03-02T02:16:35;8.60;99.90
22319;DHT22;11327;52.334;9.506;2024-03-02T02:19:55;8.60;99.90
22319;DHT22;11327;52.334;9.506;2024-03-02T02:23:16;8.60;99.90
22319;DHT22;11327;52.334;9.506;2024-03-02T02:26:37;8.60;99.90
22319;DHT22;11327;52.334;9.506;2024-03-02T02:29:57;8.70;99.90
22319;DHT22;11327;52.334;9.506;2024-03-02T02:33:18;8.60;99.90
22319;DHT22;11327;52.334;9.506;2024-03-02T02:36:39;8.60;99.90
22319;DHT22;11327;52.334;9.506;2024-03-02T02:40:01;8.60;99.90
22319;DHT22;11327;52.334;9.506;2024-03-02T02:43:21;8.60;99.90
22319;DHT22;11327;52.334;9.506;2024-03-02T02:46:42;8.50;99.90
22319;DHT22;11327;52.334;9.506;2024-03-02T02:50:03;8.50;99.90
22319;DHT22;11327;52.334;9.506;2024-03-02T02:53:24;8.50;99.90
22319;DHT22;11327;52.334;9.506;2024-03-02T02:56:45;8.50;99.90
22319;DHT22;11327;52.334;9.506;2024-03-02T03:00:10;8.50;99.90
22319;DHT22;11327;52.334;9.506;2024-03-02T03:03:33;8.50;99.90
22319;DHT22;11327;52.334;9.506;2024-03-02T03:06:54;8.50;99.90
22319;DHT22;11327;52.334;9.506;2024-03-02T03:10:16;8.40;99.90
22319;DHT22;11327;52.334;9.506;2024-03-02T03:13:37;8.30;99.90
22319;DHT22;11327;52.334;9.506;2024-03-02T03:16:58;8.10;99.90
22319;DHT22;11327;52.334;9.506;2024-03-02T03:20:18;8.00;99.90
22319;DHT22;11327;52.334;9.506;2024-03-02T03:23:40;7.90;99.90
22319;DHT22;11327;52.334;9.506;2024-03-02T03:27:00;7.80;99.90
22319;DHT22;11327;52.334;9.506;2024-03-02T03:30:21;7.70;99.90
22319;DHT22;11327;52.334;9.506;2024-03-02T03:33:42;7.70;99.90
22319;DHT22;11327;52.334;9.506;2024-03-02T03:37:03;7.60;99.90
22319;DHT22;11327;52.334;9.506;2024-03-02T03:40:24;7.50;99.90
22319;DHT22;11327;52.334;9.506;2024-03-02T03:43:44;7.50;99.90
22319;DHT22;11327;52.334;9.506;2024-03-02T03:47:05;7.40;99.90
22319;DHT22;11327;52.334;9.506;2024-03-02T03:50:26;7.40;99.90
22319;DHT22;11327;52.334;9.506;2024-03-02T03:53:47;7.40;99.90
22319;DHT22;11327;52.334;9.506;2024-03-02T03:57:07;7.50;99.90
22319;DHT22;11327;52.334;9.506;2024-03-02T04:00:28;7.30;99.90
22319;DHT22;11327;52.334;9.506;2024-03-02T04:03:49;7.20;99.90
22319;DHT22;11327;52.334;9.506;2024-03-02T04:07:09;7.20;99.90
22319;DHT22;11327;52.334;9.506;2024-03-02T04:10:30;7.20;99.90
22319;DHT22;11327;52.334;9.506;2024-03-02T04:13:51;7.10;99.90
22319;DHT22;11327;52.334;9.506;2024-03-02T04:17:12;7.00;99.90
22319;DHT22;11327;52.334;9.506;2024-03-02T04:20:33;6.90;99.90
22319;DHT22;11327;52.334;9.506;2024-03-02T04:23:54;6.90;99.90
22319;DHT22;11327;52.334;9.506;2024-03-02T04:27:17;6.80;99.90
22319;DHT22;11327;52.334;9.506;2024-03-02T04:30:38;6.90;99.90
22319;DHT22;11327;52.334;9.506;2024-03-02T04:33:58;6.80;99.90
22319;DHT22;11327;52.334;9.506;2024-03-02T04:37:19;6.80;99.90
22319;DHT22;11327;52.334;9.506;2024-03-02T04:40:40;6.70;99.90
22319;DHT22;11327;52.334;9.506;2024-03-02T04:44:01;6.90;99.90
22319;DHT22;11327;52.334;9.506;2024-03-02T04:47:22;6.80;99.90
22319;DHT22;11327;52.334;9.506;2024-03-02T04:50:43;6.80;99.90
22319;DHT22;11327;52.334;9.506;2024-03-02T04:54:03;6.80;99.90
22319;DHT22;11327;52.334;9.506;2024-03-02T04:57:24;6.80;99.90
22319;DHT22;11327;52.334;9.506;2024-03-02T05:00:45;6.70;99.90
22319;DHT22;11327;52.334;9.506;2024-03-02T05:04:07;6.70;99.90
22319;DHT22;11327;52.334;9.506;2024-03-02T05:07:27;6.70;99.90
22319;DHT22;11327;52.334;9.506;2024-03-02T05:10:48;6.80;99.90
22319;DHT22;11327;52.334;9.506;2024-03-02T05:14:09;6.70;99.90
22319;DHT22;11327;52.334;9.506;2024-03-02T05:17:30;7.20;99.90
22319;DHT22;11327;52.334;9.506;2024-03-02T05:20:50;6.70;99.90
22319;DHT22;11327;52.334;9.506;2024-03-02T05:24:11;6.70;99.90
22319;DHT22;11327;52.334;9.506;2024-03-02T05:27:32;6.70;99.90
22319;DHT22;11327;52.334;9.506;2024-03-02T05:30:55;6.60;99.90
22319;DHT22;11327;52.334;9.506;2024-03-02T05:34:16;6.60;99.90
22319;DHT22;11327;52.334;9.506;2024-03-02T05:37:37;6.60;99.90
22319;DHT22;11327;52.334;9.506;2024-03-02T05:40:58;6.60;99.90
22319;DHT22;11327;52.334;9.506;2024-03-02T05:44:18;6.50;99.90
22319;DHT22;11327;52.334;9.506;2024-03-02T05:47:40;6.50;99.90
22319;DHT22;11327;52.334;9.506;2024-03-02T05:51:00;6.50;99.90
22319;DHT22;11327;52.334;9.506;2024-03-02T05:54:21;6.50;99.90
22319;DHT22;11327;52.334;9.506;2024-03-02T05:57:42;6.50;99.90
22319;DHT22;11327;52.334;9.506;2024-03-02T06:01:07;6.50;99.90
22319;DHT22;11327;52.334;9.506;2024-03-02T06:04:28;6.40;99.90
22319;DHT22;11327;52.334;9.506;2024-03-02T06:07:49;6.40;99.90
22319;DHT22;11327;52.334;9.506;2024-03-02T06:11:10;6.40;99.90
22319;DHT22;11327;52.334;9.506;2024-03-02T06:14:30;6.40;99.90
22319;DHT22;11327;52.334;9.506;2024-03-02T06:17:51;6.40;99.90
22319;DHT22;11327;52.334;9.506;2024-03-02T06:21:12;6.40;99.90
22319;DHT22;11327;52.334;9.506;2024-03-02T06:24:32;6.40;99.90
22319;DHT22;11327;52.334;9.506;2024-03-02T06:27:53;6.40;99.90
22319;DHT22;11327;52.334;9.506;2024-03-02T06:31:14;6.40;99.90
22319;DHT22;11327;52.334;9.506;2024-03-02T06:34:34;6.40;99.90
22319;DHT22;11327;52.334;9.506;2024-03-02T06:37:55;6.40;99.90
22319;DHT22;11327;52.334;9.506;2024-03-02T06:41:16;6.40;99.90
22319;DHT22;11327;52.334;9.506;2024-03-02T06:44:36;6.40;99.90
22319;DHT22;11327;52.334;9.506;2024-03-02T06:47:57;6.40;99.90
22319;DHT22;11327;52.334;9.506;2024-03-02T06:51:18;6.50;99.90
22319;DHT22;11327;52.334;9.506;2024-03-02T06:54:39;6.50;99.90
22319;DHT22;11327;52.334;9.506;2024-03-02T06:57:59;6.50;99.90
22319;DHT22;11327;52.334;9.506;2024-03-02T07:01:20;6.50;99.90
22319;DHT22;11327;52.334;9.506;2024-03-02T07:04:41;6.60;99.90
22319;DHT22;11327;52.334;9.506;2024-03-02T07:08:02;6.60;99.90
22319;DHT22;11327;52.334;9.506;2024-03-02T07:11:23;6.70;99.90
22319;DHT22;11327;52.334;9.506;2024-03-02T07:14:44;6.70;99.90
22319;DHT22;11327;52.334;9.506;2024-03-02T07:18:25;6.80;99.90
22319;DHT22;11327;52.334;9.506;2024-03-02T07:21:45;6.90;99.90
22319;DHT22;11327;52.334;9.506;2024-03-02T07:25:06;6.90;99.90
22319;DHT22;11327;52.334;9.506;2024-03-02T07:28:28;7.00;99.90
22319;DHT22;11327;52.334;9.506;2024-03-02T07:31:48;7.00;99.90
22319;DHT22;11327;52.334;9.506;2024-03-02T07:35:09;7.20;99.90
22319;DHT22;11327;52.334;9.506;2024-03-02T07:38:30;7.30;99.90
22319;DHT22;11327;52.334;9.506;2024-03-02T07:41:52;7.40;99.90
22319;DHT22;11327;52.334;9.506;2024-03-02T07:45:13;7.50;99.90
22319;DHT22;11327;52.334;9.506;2024-03-02T07:48:33;7.70;99.90
22319;DHT22;11327;52.334;9.506;2024-03-02T07:51:54;8.00;99.90
22319;DHT22;11327;52.334;9.506;2024-03-02T07:55:16;8.20;99.90
22319;DHT22;11327;52.334;9.506;2024-03-02T07:58:39;8.40;99.90
22319;DHT22;11327;52.334;9.506;2024-03-02T08:01:59;8.60;99.90
22319;DHT22;11327;52.334;9.506;2024-03-02T08:05:21;8.80;99.90
22319;DHT22;11327;52.334;9.506;2024-03-02T08:08:42;9.10;99.90
22319;DHT22;11327;52.334;9.506;2024-03-02T08:12:03;9.30;99.90
22319;DHT22;11327;52.334;9.506;2024-03-02T08:15:23;9.50;99.90
22319;DHT22;11327;52.334;9.506;2024-03-02T08:18:44;9.60;99.90
22319;DHT22;11327;52.334;9.506;2024-03-02T08:22:05;9.70;99.90
22319;DHT22;11327;52.334;9.506;2024-03-02T08:25:26;9.80;99.90
22319;DHT22;11327;52.334;9.506;2024-03-02T08:28:47;9.80;99.90
22319;DHT22;11327;52.334;9.506;2024-03-02T08:32:07;9.80;99.90
22319;DHT22;11327;52.334;9.506;2024-03-02T08:35:28;9.80;99.90
22319;DHT22;11327;52.334;9.506;2024-03-02T08:38:50;9.90;99.90
22319;DHT22;11327;52.334;9.506;2024-03-02T08:42:11;10.20;99.90
22319;DHT22;11327;52.334;9.506;2024-03-02T08:45:31;10.40;99.90
22319;DHT22;11327;52.334;9.506;2024-03-02T08:48:52;10.50;99.90
22319;DHT22;11327;52.334;9.506;2024-03-02T08:52:13;10.60;99.90
22319;DHT22;11327;52.334;9.506;2024-03-02T08:55:33;10.60;99.90
22319;DHT22;11327;52.334;9.506;2024-03-02T08:58:54;10.60;99.90
22319;DHT22;11327;52.334;9.506;2024-03-02T09:02:15;10.60;99.90
22319;DHT22;11327;52.334;9.506;2024-03-02T09:05:36;10.60;99.90
22319;DHT22;11327;52.334;9.506;2024-03-02T09:08:56;10.60;99.90
22319;DHT22;11327;52.334;9.506;2024-03-02T09:12:17;10.50;99.90
22319;DHT22;11327;52.334;9.506;2024-03-02T09:15:38;10.60;99.90
22319;DHT22;11327;52.334;9.506;2024-03-02T09:19:00;10.60;99.90
22319;DHT22;11327;52.334;9.506;2024-03-02T09:22:21;10.60;99.90
22319;DHT22;11327;52.334;9.506;2024-03-02T09:25:42;10.50;99.90
22319;DHT22;11327;52.334;9.506;2024-03-02T09:29:03;10.60;99.90
22319;DHT22;11327;52.334;9.506;2024-03-02T09:32:23;10.60;99.90
22319;DHT22;11327;52.334;9.506;2024-03-02T09:35:44;10.60;99.90
22319;DHT22;11327;52.334;9.506;2024-03-02T09:39:07;10.60;99.90
22319;DHT22;11327;52.334;9.506;2024-03-02T09:42:30;10.60;99.90
22319;DHT22;11327;52.334;9.506;2024-03-02T09:45:51;10.70;99.90
22319;DHT22;11327;52.334;9.506;2024-03-02T09:49:12;10.70;99.90
22319;DHT22;11327;52.334;9.506;2024-03-02T09:52:33;10.80;99.90
22319;DHT22;11327;52.334;9.506;2024-03-02T09:55:54;10.90;99.90
22319;DHT22;11327;52.334;9.506;2024-03-02T09:59:15;10.90;99.90
22319;DHT22;11327;52.334;9.506;2024-03-02T10:02:37;11.10;99.90
22319;DHT22;11327;52.334;9.506;2024-03-02T10:09:35;11.30;99.90
22319;DHT22;11327;52.334;9.506;2024-03-02T10:13:10;11.40;99.90
22319;DHT22;11327;52.334;9.506;2024-03-02T10:16:27;11.40;99.90
22319;DHT22;11327;52.334;9.506;2024-03-02T10:19:48;11.40;99.90
22319;DHT22;11327;52.334;9.506;2024-03-02T10:23:10;11.50;99.90
22319;DHT22;11327;52.334;9.506;2024-03-02T10:26:31;11.60;99.90
22319;DHT22;11327;52.334;9.506;2024-03-02T10:29:51;11.70;99.90
22319;DHT22;11327;52.334;9.506;2024-03-02T10:33:12;12.30;99.90
22319;DHT22;11327;52.334;9.506;2024-03-02T10:36:36;11.80;99.90
22319;DHT22;11327;52.334;9.506;2024-03-02T10:40:04;11.90;99.90
22319;DHT22;11327;52.334;9.506;2024-03-02T10:43:23;11.80;99.90
22319;DHT22;11327;52.334;9.506;2024-03-02T10:46:45;12.00;99.90
22319;DHT22;11327;52.334;9.506;2024-03-02T10:50:07;12.10;99.90
22319;DHT22;11327;52.334;9.506;2024-03-02T10:53:28;12.10;99.90
22319;DHT22;11327;52.334;9.506;2024-03-02T10:56:49;12.70;99.90
22319;DHT22;11327;52.334;9.506;2024-03-02T11:00:12;12.20;99.90
22319;DHT22;11327;52.334;9.506;2024-03-02T11:03:36;12.20;99.90
22319;DHT22;11327;52.334;9.506;2024-03-02T11:07:07;12.20;99.90
22319;DHT22;11327;52.334;9.506;2024-03-02T11:10:36;12.20;99.90
22319;DHT22;11327;52.334;9.506;2024-03-02T11:13:56;12.50;99.90
22319;DHT22;11327;52.334;9.506;2024-03-02T11:17:20;12.30;99.90
22319;DHT22;11327;52.334;9.506;2024-03-02T11:20:42;12.30;99.90
22319;DHT22;11327;52.334;9.506;2024-03-02T11:31:10;12.50;99.90
22319;DHT22;11327;52.334;9.506;2024-03-02T11:34:32;12.60;99.90
22319;DHT22;11327;52.334;9.506;2024-03-02T11:37:54;12.80;99.90
22319;DHT22;11327;52.334;9.506;2024-03-02T11:41:15;13.00;99.90
22319;DHT22;11327;52.334;9.506;2024-03-02T11:44:36;13.20;99.90
22319;DHT22;11327;52.334;9.506;2024-03-02T11:47:58;13.50;99.90
22319;DHT22;11327;52.334;9.506;2024-03-02T11:51:20;13.80;99.90
22319;DHT22;11327;52.334;9.506;2024-03-02T11:54:42;14.00;99.90
22319;DHT22;11327;52.334;9.506;2024-03-02T11:58:10;14.20;99.90
22319;DHT22;11327;52.334;9.506;2024-03-02T12:01:34;14.40;99.90
22319;DHT22;11327;52.334;9.506;2024-03-02T12:04:55;14.60;99.90
22319;DHT22;11327;52.334;9.506;2024-03-02T12:08:17;14.60;99.90
22319;DHT22;11327;52.334;9.506;2024-03-02T12:11:38;14.90;99.90
22319;DHT22;11327;52.334;9.506;2024-03-02T12:14:59;15.10;99.90
22319;DHT22;11327;52.334;9.506;2024-03-02T12:18:21;15.10;99.90
22319;DHT22;11327;52.334;9.506;2024-03-02T12:21:41;15.30;99.90
22319;DHT22;11327;52.334;9.506;2024-03-02T12:25:02;15.50;99.90
22319;DHT22;11327;52.334;9.506;2024-03-02T12:28:24;15.40;99.90
22319;DHT22;11327;52.334;9.506;2024-03-02T12:31:45;15.40;99.90
22319;DHT22;11327;52.334;9.506;2024-03-02T12:35:06;15.40;99.90
22319;DHT22;11327;52.334;9.506;2024-03-02T12:38:27;15.40;99.90
22319;DHT22;11327;52.334;9.506;2024-03-02T12:41:47;15.40;99.90
22319;DHT22;11327;52.334;9.506;2024-03-02T12:45:11;15.50;99.90
22319;DHT22;11327;52.334;9.506;2024-03-02T12:48:32;15.70;99.90
22319;DHT22;11327;52.334;9.506;2024-03-02T12:51:53;14.60;99.90
22319;DHT22;11327;52.334;9.506;2024-03-02T12:55:14;15.80;99.90
22319;DHT22;11327;52.334;9.506;2024-03-02T12:58:39;16.00;99.90
22319;DHT22;11327;52.334;9.506;2024-03-02T13:02:01;15.90;99.90
22319;DHT22;11327;52.334;9.506;2024-03-02T13:05:22;15.70;99.90
22319;DHT22;11327;52.334;9.506;2024-03-02T13:08:45;17.90;99.90
22319;DHT22;11327;52.334;9.506;2024-03-02T13:12:06;15.60;99.90
22319;DHT22;11327;52.334;9.506;2024-03-02T13:15:27;15.50;99.90
22319;DHT22;11327;52.334;9.506;2024-03-02T13:18:49;15.50;99.90
22319;DHT22;11327;52.334;9.506;2024-03-02T13:22:09;15.20;99.90
22319;DHT22;11327;52.334;9.506;2024-03-02T13:25:30;15.20;99.90
22319;DHT22;11327;52.334;9.506;2024-03-02T13:28:52;15.10;99.90
22319;DHT22;11327;52.334;9.506;2024-03-02T13:32:13;15.10;99.90
22319;DHT22;11327;52.334;9.506;2024-03-02T13:35:34;15.10;99.90
22319;DHT22;11327;52.334;9.506;2024-03-02T13:38:54;15.10;99.90
22319;DHT22;11327;52.334;9.506;2024-03-02T13:42:16;15.10;99.90
22319;DHT22;11327;52.334;9.506;2024-03-02T13:45:36;15.10;99.90
22319;DHT22;11327;52.334;9.506;2024-03-02T13:48:57;15.10;99.90
22319;DHT22;11327;52.334;9.506;2024-03-02T13:52:18;15.10;99.90
22319;DHT22;11327;52.334;9.506;2024-03-02T13:55:39;15.10;99.90
22319;DHT22;11327;52.334;9.506;2024-03-02T13:59:00;15.20;99.90
22319;DHT22;11327;52.334;9.506;2024-03-02T14:02:21;15.10;99.90
22319;DHT22;11327;52.334;9.506;2024-03-02T14:05:43;15.10;99.90
22319;DHT22;11327;52.334;9.506;2024-03-02T14:09:03;15.00;99.90
22319;DHT22;11327;52.334;9.506;2024-03-02T14:12:24;17.40;99.90
22319;DHT22;11327;52.334;9.506;2024-03-02T14:15:45;15.00;99.90
22319;DHT22;11327;52.334;9.506;2024-03-02T14:19:06;15.00;99.90
22319;DHT22;11327;52.334;9.506;2024-03-02T14:22:27;15.10;99.90
22319;DHT22;11327;52.334;9.506;2024-03-02T14:25:48;15.00;99.90
22319;DHT22;11327;52.334;9.506;2024-03-02T14:29:08;15.10;99.90
22319;DHT22;11327;52.334;9.506;2024-03-02T14:32:30;15.10;99.90
22319;DHT22;11327;52.334;9.506;2024-03-02T14:35:50;15.10;99.90
22319;DHT22;11327;52.334;9.506;2024-03-02T14:39:11;15.10;99.90
22319;DHT22;11327;52.334;9.506;2024-03-02T14:42:32;14.90;99.90
22319;DHT22;11327;52.334;9.506;2024-03-02T14:45:53;14.90;99.90
22319;DHT22;11327;52.334;9.506;2024-03-02T14:49:14;14.90;99.90
22319;DHT22;11327;52.334;9.506;2024-03-02T14:52:35;14.90;99.90
22319;DHT22;11327;52.334;9.506;2024-03-02T14:55:56;15.10;99.90
22319;DHT22;11327;52.334;9.506;2024-03-02T14:59:18;15.10;99.90
22319;DHT22;11327;52.334;9.506;2024-03-02T15:02:38;15.10;99.90
22319;DHT22;11327;52.334;9.506;2024-03-02T15:05:59;15.10;99.90
22319;DHT22;11327;52.334;9.506;2024-03-02T15:09:20;15.10;99.90
22319;DHT22;11327;52.334;9.506;2024-03-02T15:12:41;15.20;99.90
22319;DHT22;11327;52.334;9.506;2024-03-02T15:16:01;15.10;99.90
22319;DHT22;11327;52.334;9.506;2024-03-02T15:19:22;15.10;99.90
22319;DHT22;11327;52.334;9.506;2024-03-02T15:22:43;15.00;99.90
22319;DHT22;11327;52.334;9.506;2024-03-02T15:26:04;15.00;99.90
22319;DHT22;11327;52.334;9.506;2024-03-02T15:29:24;14.90;99.90
22319;DHT22;11327;52.334;9.506;2024-03-02T15:32:47;15.00;99.90
22319;DHT22;11327;52.334;9.506;2024-03-02T15:36:08;14.90;99.90
22319;DHT22;11327;52.334;9.506;2024-03-02T15:39:28;14.90;99.90
22319;DHT22;11327;52.334;9.506;2024-03-02T15:42:49;14.90;99.90
22319;DHT22;11327;52.334;9.506;2024-03-02T15:46:10;15.80;99.90
22319;DHT22;11327;52.334;9.506;2024-03-02T15:49:31;14.80;99.90
22319;DHT22;11327;52.334;9.506;2024-03-02T15:52:52;14.70;99.90
22319;DHT22;11327;52.334;9.506;2024-03-02T15:56:15;15.60;99.90
22319;DHT22;11327;52.334;9.506;2024-03-02T15:59:36;13.70;99.90
22319;DHT22;11327;52.334;9.506;2024-03-02T16:02:56;14.40;99.90
22319;DHT22;11327;52.334;9.506;2024-03-02T16:06:17;14.30;99.90
22319;DHT22;11327;52.334;9.506;2024-03-02T16:09:38;14.20;99.90
22319;DHT22;11327;52.334;9.506;2024-03-02T16:12:58;14.10;99.90
22319;DHT22;11327;52.334;9.506;2024-03-02T16:16:20;14.00;99.90
22319;DHT22;11327;52.334;9.506;2024-03-02T16:19:41;14.70;99.90
22319;DHT22;11327;52.334;9.506;2024-03-02T16:23:02;13.80;99.90
22319;DHT22;11327;52.334;9.506;2024-03-02T16:26:42;13.70;99.90
22319;DHT22;11327;52.334;9.506;2024-03-02T16:30:04;13.10;99.90
22319;DHT22;11327;52.334;9.506;2024-03-02T16:33:25;13.50;99.90
22319;DHT22;11327;52.334;9.506;2024-03-02T16:36:46;13.40;99.90
22319;DHT22;11327;52.334;9.506;2024-03-02T16:40:07;13.20;99.90
22319;DHT22;11327;52.334;9.506;2024-03-02T16:43:28;13.10;99.90
22319;DHT22;11327;52.334;9.506;2024-03-02T16:46:49;13.00;99.90
22319;DHT22;11327;52.334;9.506;2024-03-02T16:50:09;12.90;99.90
22319;DHT22;11327;52.334;9.506;2024-03-02T16:53:33;12.90;99.90
22319;DHT22;11327;52.334;9.506;2024-03-02T16:56:54;12.80;99.90
22319;DHT22;11327;52.334;9.506;2024-03-02T17:00:16;12.80;99.90
22319;DHT22;11327;52.334;9.506;2024-03-02T17:03:36;12.60;99.90
22319;DHT22;11327;52.334;9.506;2024-03-02T17:06:57;12.50;99.90
22319;DHT22;11327;52.334;9.506;2024-03-02T17:10:18;12.50;99.90
22319;DHT22;11327;52.334;9.506;2024-03-02T17:13:39;12.40;99.90
22319;DHT22;11327;52.334;9.506;2024-03-02T17:16:59;12.40;99.90
22319;DHT22;11327;52.334;9.506;2024-03-02T17:20:21;12.20;99.90
22319;DHT22;11327;52.334;9.506;2024-03-02T17:23:42;12.30;99.90
22319;DHT22;11327;52.334;9.506;2024-03-02T17:27:03;12.10;99.90
22319;DHT22;11327;52.334;9.506;2024-03-02T17:30:23;12.00;99.90
22319;DHT22;11327;52.334;9.506;2024-03-02T17:33:44;11.90;99.90
22319;DHT22;11327;52.334;9.506;2024-03-02T17:37:05;11.80;99.90
22319;DHT22;11327;52.334;9.506;2024-03-02T17:40:25;11.80;99.90
22319;DHT22;11327;52.334;9.506;2024-03-02T17:43:46;11.70;99.90
22319;DHT22;11327;52.334;9.506;2024-03-02T17:47:07;11.60;99.90
22319;DHT22;11327;52.334;9.506;2024-03-02T17:50:28;13.90;99.90
22319;DHT22;11327;52.334;9.506;2024-03-02T17:53:49;11.40;99.90
22319;DHT22;11327;52.334;9.506;2024-03-02T17:57:10;11.30;99.90
22319;DHT22;11327;52.334;9.506;2024-03-02T18:00:30;11.60;99.90
22319;DHT22;11327;52.334;9.506;2024-03-02T18:03:51;11.20;99.90
22319;DHT22;11327;52.334;9.506;2024-03-02T18:07:12;11.40;99.90
22319;DHT22;11327;52.334;9.506;2024-03-02T18:10:33;11.20;99.90
22319;DHT22;11327;52.334;9.506;2024-03-02T18:13:54;11.20;99.90
22319;DHT22;11327;52.334;9.506;2024-03-02T18:17:15;11.10;99.90
22319;DHT22;11327;52.334;9.506;2024-03-02T18:20:35;11.00;99.90
22319;DHT22;11327;52.334;9.506;2024-03-02T18:23:56;11.00;99.90
22319;DHT22;11327;52.334;9.506;2024-03-02T18:27:17;11.00;99.90
22319;DHT22;11327;52.334;9.506;2024-03-02T18:30:38;11.10;99.90
22319;DHT22;11327;52.334;9.506;2024-03-02T18:33:59;10.80;99.90
22319;DHT22;11327;52.334;9.506;2024-03-02T18:37:20;10.80;99.90
22319;DHT22;11327;52.334;9.506;2024-03-02T18:40:42;10.80;99.90
22319;DHT22;11327;52.334;9.506;2024-03-02T18:44:05;10.80;99.90
22319;DHT22;11327;52.334;9.506;2024-03-02T18:47:26;10.70;99.90
22319;DHT22;11327;52.334;9.506;2024-03-02T18:50:47;10.70;99.90
22319;DHT22;11327;52.334;9.506;2024-03-02T18:54:08;10.70;99.90
22319;DHT22;11327;52.334;9.506;2024-03-02T18:57:29;10.70;99.90
22319;DHT22;11327;52.334;9.506;2024-03-02T19:00:50;10.60;99.90
22319;DHT22;11327;52.334;9.506;2024-03-02T19:04:11;10.50;99.90
22319;DHT22;11327;52.334;9.506;2024-03-02T19:07:32;10.60;99.90
22319;DHT22;11327;52.334;9.506;2024-03-02T19:10:52;10.60;99.90
22319;DHT22;11327;52.334;9.506;2024-03-02T19:14:13;11.00;99.90
22319;DHT22;11327;52.334;9.506;2024-03-02T19:17:34;10.60;99.90
22319;DHT22;11327;52.334;9.506;2024-03-02T19:20:55;10.60;99.90
22319;DHT22;11327;52.334;9.506;2024-03-02T19:24:15;10.50;99.90
22319;DHT22;11327;52.334;9.506;2024-03-02T19:27:36;10.70;99.90
22319;DHT22;11327;52.334;9.506;2024-03-02T19:30:57;10.30;99.90
22319;DHT22;11327;52.334;9.506;2024-03-02T19:34:18;10.20;99.90
22319;DHT22;11327;52.334;9.506;2024-03-02T19:37:41;11.50;99.90
22319;DHT22;11327;52.334;9.506;2024-03-02T19:41:01;10.10;99.90
22319;DHT22;11327;52.334;9.506;2024-03-02T19:44:22;10.00;99.90
22319;DHT22;11327;52.334;9.506;2024-03-02T19:47:45;10.00;99.90
22319;DHT22;11327;52.334;9.506;2024-03-02T19:51:06;9.90;99.90
22319;DHT22;11327;52.334;9.506;2024-03-02T19:54:26;9.90;99.90
22319;DHT22;11327;52.334;9.506;2024-03-02T19:57:47;9.90;99.90
22319;DHT22;11327;52.334;9.506;2024-03-02T20:01:08;9.90;99.90
22319;DHT22;11327;52.334;9.506;2024-03-02T20:04:28;9.90;99.90
22319;DHT22;11327;52.334;9.506;2024-03-02T20:07:49;9.90;99.90
22319;DHT22;11327;52.334;9.506;2024-03-02T20:11:10;9.90;99.90
22319;DHT22;11327;52.334;9.506;2024-03-02T20:14:31;9.90;99.90
22319;DHT22;11327;52.334;9.506;2024-03-02T20:17:53;10.00;99.90
22319;DHT22;11327;52.334;9.506;2024-03-02T20:21:15;9.90;99.90
22319;DHT22;11327;52.334;9.506;2024-03-02T20:24:36;10.10;99.90
22319;DHT22;11327;52.334;9.506;2024-03-02T20:27:56;9.90;99.90
22319;DHT22;11327;52.334;9.506;2024-03-02T20:31:19;9.90;99.90
22319;DHT22;11327;52.334;9.506;2024-03-02T20:34:40;9.90;99.90
22319;DHT22;11327;52.334;9.506;2024-03-02T20:38:01;9.70;99.90
22319;DHT22;11327;52.334;9.506;2024-03-02T20:41:21;9.70;99.90
22319;DHT22;11327;52.334;9.506;2024-03-02T20:44:42;9.70;99.90
22319;DHT22;11327;52.334;9.506;2024-03-02T20:48:03;9.60;99.90
22319;DHT22;11327;52.334;9.506;2024-03-02T20:51:24;9.50;99.90
22319;DHT22;11327;52.334;9.506;2024-03-02T20:54:49;9.40;99.90
22319;DHT22;11327;52.334;9.506;2024-03-02T20:58:10;9.30;99.90
22319;DHT22;11327;52.334;9.506;2024-03-02T21:01:31;9.30;99.90
22319;DHT22;11327;52.334;9.506;2024-03-02T21:04:52;9.30;99.90
22319;DHT22;11327;52.334;9.506;2024-03-02T21:08:12;9.20;99.90
22319;DHT22;11327;52.334;9.506;2024-03-02T21:11:33;9.10;99.90
22319;DHT22;11327;52.334;9.506;2024-03-02T21:14:54;9.20;99.90
22319;DHT22;11327;52.334;9.506;2024-03-02T21:18:14;9.20;99.90
22319;DHT22;11327;52.334;9.506;2024-03-02T21:21:35;9.20;99.90
22319;DHT22;11327;52.334;9.506;2024-03-02T21:24:58;9.10;99.90
22319;DHT22;11327;52.334;9.506;2024-03-02T21:28:20;9.00;99.90
22319;DHT22;11327;52.334;9.506;2024-03-02T21:31:41;8.90;99.90